Nett Lake, MN (55772)

3:32 PM CDT on September 20, 2014 (GMT -0500)
Orr Regional | Change Station
CLOSE
Current Station
Airport
Location: Orr,
Elevation: 1309 ft
Nearby Weather Stations

Elev 1309 ft 48.02 °N, 92.86 °W | Updated 19 minutes ago

Partly Cloudy
Partly Cloudy
61 °F
Feels Like 61 °F
N
4
Wind Variable Wind from NNW

Today
High -- | Low -- °F
--% Chance of Precip.
Yesterday
High -- | Low -- °F
Precip. -- in
6:56 AM 7:14 PM
Waning Crescent, 10% visible
Pressure 29.68 in
Visibility 10.0 miles
Clouds Clear
Dew Point 45 °F
Humidity 55%
Rainfall 0.00 in
Snow Depth Not available.
UV 4 out of 12
Pollen .40 out of 12
Air Quality Not available.
Flu Activity Not available.
METAR KORB 202013Z AUTO 34003KT 10SM CLR 16/07 A2968 RMK AO2

More Conditions Fewer Conditions

Pressure 29.68 in
Visibility 10.0 miles
Clouds Clear
Dew Point 45 °F
Humidity 55%
Rainfall 0.00 in
Snow Depth Not available.
UV 4 out of 12
Pollen .40 out of 12
Air Quality Not available.
Flu Activity Not available.
METAR KORB 202013Z AUTO 34003KT 10SM CLR 16/07 A2968 RMK AO2

More Conditions Fewer Conditions

10-Day Weather Forecast

Almanac

Astronomy

Sep. 20, 2014 Rise Set
Actual Time 6:56 AM CDT 7:14 PM CDT
Civil Twilight 6:25 AM CDT 7:45 PM CDT
Nautical Twilight 5:48 AM CDT 8:21 PM CDT
Astronomical Twilight 5:10 AM CDT 8:59 PM CDT
Moon 3:23 AM CDT 5:28 PM CDT
Length of Visible Light 13h 20m
Length of Day
12h 17m
Tomorrow will be 3m 27s shorter.
Waning Crescent, 10% of the Moon is Illuminated
Today
Waning Crescent
Sep 24
New
Oct 1
First Quarter
Oct 8
Full
Oct 15
Last Quarter

Today's Extremes

State Highs State Lows

Community

WunderPhotos

Upload Photos

1,754,937 photos uploaded!

WunderBlogs® & News

Nearby

Snow Depth

Station Depth Elevation
No new snow has been reported.

Earthquake Activity

City Distance Mag. Time & Date
No recent earthquake activity has been reported nearby.
Minimum magnitude displayed is 2.5.

Coastal Water Temperatures

Place Temperature
No Stations Reporting

Nearby Weather Stations